Time;durP1;ratioP1;P1;durP2;ratioP2;P2;SDS_P1;SDS_P2;PMS_P1;PMS_P2;Temp;Humidity;BMP_temperature;BMP_pressure;BME280_temperature;BME280_humidity;BME280_pressure;Samples;Min_cycle;Max_cycle;Signal;HPM_P1;HPM_P2
2021/08/26 00:00:20;;;;;;;24.90;16.23;;;;;;;18.76;100.00;100060.03;1694132;83;21134;-57
2021/08/26 00:06:16;;;;;;;22.97;16.40;;;;;;;18.57;100.00;100052.33;1695778;82;21066;-57
2021/08/26 00:08:02;;;;;;;;;;;;;;;18.54;100.00;100048.05;1674881;83;21243;-58
2021/08/26 00:10:30;;;;;;;21.67;16.07;;;;;;;18.55;100.00;100048.32;1696720;83;20311;-58
2021/08/26 00:12:57;;;;;;;26.93;18.07;;;;;;;18.51;100.00;100054.60;1695214;83;21057;-58
2021/08/26 00:15:24;;;;;;;22.60;16.63;;;;;;;18.46;100.00;100051.37;1696177;83;20974;-58
2021/08/26 00:17:50;;;;;;;26.63;19.03;;;;;;;18.40;100.00;100048.88;1698378;83;21084;-56
2021/08/26 00:20:17;;;;;;;27.50;19.47;;;;;;;18.32;100.00;100046.64;1694461;83;21070;-57
2021/08/26 00:22:43;;;;;;;25.77;19.23;;;;;;;18.35;100.00;100045.64;1694556;83;21045;-58
2021/08/26 00:25:10;;;;;;;23.87;17.23;;;;;;;18.32;100.00;100042.68;1695455;84;21092;-59
2021/08/26 00:27:37;;;;;;;24.73;17.97;;;;;;;18.29;100.00;100044.47;1694320;84;20928;-57
2021/08/26 00:30:05;;;;;;;26.57;17.50;;;;;;;18.29;100.00;100048.43;1694432;84;21073;-57
2021/08/26 00:32:31;;;;;;;24.57;17.23;;;;;;;18.35;100.00;100043.53;1691154;84;22268;-57
2021/08/26 00:34:58;;;;;;;27.77;18.43;;;;;;;18.23;100.00;100045.72;1695504;84;21024;-57
2021/08/26 00:37:24;;;;;;;25.27;17.40;;;;;;;18.28;100.00;100042.36;1694428;83;20954;-57
2021/08/26 00:39:50;;;;;;;29.77;18.10;;;;;;;18.30;100.00;100040.30;1694792;84;21053;-56
2021/08/26 00:42:18;;;;;;;28.20;18.60;;;;;;;18.31;100.00;100039.25;1692590;83;21089;-57
2021/08/26 00:44:44;;;;;;;28.30;19.63;;;;;;;18.31;100.00;100035.81;1694941;83;22454;-57
2021/08/26 00:47:10;;;;;;;25.10;19.03;;;;;;;18.18;100.00;100034.27;1695388;83;21060;-57
2021/08/26 00:49:37;;;;;;;27.17;17.93;;;;;;;18.12;100.00;100038.66;1695369;84;20934;-57
2021/08/26 00:52:04;;;;;;;27.87;19.00;;;;;;;18.05;100.00;100039.86;1695962;83;21060;-56
2021/08/26 00:54:30;;;;;;;28.17;18.53;;;;;;;18.19;100.00;100040.64;1695570;83;22224;-57
2021/08/26 00:56:57;;;;;;;30.30;19.00;;;;;;;18.08;100.00;100038.06;1695670;83;21090;-56
2021/08/26 00:59:26;;;;;;;28.30;18.57;;;;;;;18.03;100.00;100036.12;1695717;83;20927;-57
2021/08/26 01:01:57;;;;;;;27.57;20.50;;;;;;;18.03;100.00;100039.28;1694275;83;21081;-56
2021/08/26 01:04:32;;;;;;;;;;;;;;;17.91;100.00;100034.86;1687061;83;21071;-57
2021/08/26 01:07:16;;;;;;;26.53;18.97;;;;;;;17.87;100.00;100036.37;1674549;85;20199;-57
2021/08/26 01:09:53;;;;;;;27.80;18.00;;;;;;;17.80;100.00;100040.19;1673952;84;21136;-56
2021/08/26 01:12:23;;;;;;;25.30;18.43;;;;;;;17.79;100.00;100046.50;1674693;85;20935;-57
2021/08/26 01:14:55;;;;;;;24.30;19.20;;;;;;;17.84;100.00;100039.99;1674567;84;21579;-57
2021/08/26 01:17:31;;;;;;;23.77;18.23;;;;;;;17.82;100.00;100044.72;1673384;85;21055;-56
2021/08/26 01:19:59;;;;;;;25.80;19.33;;;;;;;17.68;100.00;100043.63;1672978;85;21420;-56
2021/08/26 01:22:27;;;;;;;26.27;18.40;;;;;;;17.57;100.00;100047.11;1674117;84;21194;-57
2021/08/26 01:25:09;;;;;;;27.03;19.67;;;;;;;17.50;100.00;100051.70;1673530;84;20900;-56
2021/08/26 01:27:59;;;;;;;23.10;17.87;;;;;;;17.46;100.00;100047.94;1673620;84;21078;-57
2021/08/26 01:30:30;;;;;;;23.60;18.27;;;;;;;17.58;100.00;100055.32;1674295;84;21039;-57
2021/08/26 01:33:00;;;;;;;20.48;16.12;;;;;;;17.33;100.00;100062.70;1672106;85;21029;-57
2021/08/26 01:35:30;;;;;;;26.27;18.55;;;;;;;17.32;100.00;100062.42;1674132;85;21583;-58
2021/08/26 01:37:57;;;;;;;22.50;15.77;;;;;;;17.33;100.00;100062.19;1672816;84;20978;-58
2021/08/26 01:40:40;;;;;;;24.13;17.10;;;;;;;17.42;100.00;100059.98;1673940;84;20991;-57
2021/08/26 01:43:09;;;;;;;24.50;17.60;;;;;;;17.40;100.00;100060.75;1670951;85;20908;-57
2021/08/26 01:45:39;;;;;;;29.77;18.60;;;;;;;17.38;100.00;100058.84;1673790;84;21011;-58
2021/08/26 01:48:06;;;;;;;24.63;17.87;;;;;;;17.43;100.00;100057.66;1670850;85;21500;-57
2021/08/26 01:50:34;;;;;;;27.63;17.80;;;;;;;17.29;100.00;100061.57;1673961;84;21627;-58
2021/08/26 01:53:00;;;;;;;26.13;17.10;;;;;;;17.25;100.00;100063.34;1672771;85;21006;-57
2021/08/26 01:55:27;;;;;;;29.90;17.97;;;;;;;17.20;100.00;100064.56;1673666;84;21129;-57
2021/08/26 01:57:53;;;;;;;24.07;18.20;;;;;;;17.21;100.00;100066.16;1673794;85;20954;-58
2021/08/26 02:00:20;;;;;;;26.63;19.07;;;;;;;17.16;100.00;100063.91;1669695;85;21161;-58
2021/08/26 02:02:46;;;;;;;24.17;19.23;;;;;;;17.13;100.00;100068.35;1673263;84;21089;-58
2021/08/26 02:05:12;;;;;;;27.97;18.47;;;;;;;17.19;100.00;100070.84;1670170;84;21497;-58
2021/08/26 02:07:47;;;;;;;26.97;18.80;;;;;;;17.21;100.00;100074.58;1669692;85;21579;-59
2021/08/26 02:10:13;;;;;;;28.93;18.30;;;;;;;17.19;100.00;100069.52;1669156;85;20986;-58
2021/08/26 02:12:40;;;;;;;26.77;20.30;;;;;;;17.18;100.00;100074.52;1668982;84;21228;-58
2021/08/26 02:15:10;;;;;;;28.80;20.77;;;;;;;17.16;100.00;100073.95;1667532;85;21016;-58
2021/08/26 02:17:36;;;;;;;25.87;19.60;;;;;;;17.19;100.00;100070.05;1670574;84;21086;-58
2021/08/26 02:20:06;;;;;;;31.50;19.73;;;;;;;17.17;100.00;100075.55;1666954;85;21005;-58
2021/08/26 02:22:33;;;;;;;36.63;21.27;;;;;;;17.15;100.00;100077.60;1670518;85;22370;-58
2021/08/26 02:25:01;;;;;;;27.50;21.10;;;;;;;17.16;100.00;100085.81;1669443;85;21496;-58
2021/08/26 02:27:28;;;;;;;32.30;22.20;;;;;;;17.08;100.00;100076.92;1669529;85;21343;-58
2021/08/26 02:29:54;;;;;;;25.73;20.70;;;;;;;17.11;100.00;100080.41;1668442;85;20998;-59
2021/08/26 02:32:21;;;;;;;27.93;19.73;;;;;;;17.11;100.00;100083.05;1669567;85;20990;-58
2021/08/26 02:34:48;;;;;;;29.47;21.00;;;;;;;17.16;100.00;100079.23;1670007;85;21130;-58
2021/08/26 02:37:15;;;;;;;26.97;20.97;;;;;;;17.13;100.00;100085.47;1670767;85;21725;-58
2021/08/26 02:39:41;;;;;;;26.87;20.80;;;;;;;17.11;100.00;100078.30;1672612;85;21114;-58
2021/08/26 02:42:08;;;;;;;24.70;19.27;;;;;;;17.17;100.00;100080.02;1671847;85;21017;-59
2021/08/26 02:44:34;;;;;;;26.60;18.83;;;;;;;17.10;100.00;100080.13;1669578;85;21122;-59
2021/08/26 02:47:01;;;;;;;25.67;18.90;;;;;;;17.26;100.00;100081.27;1671017;85;22338;-58
2021/08/26 02:49:27;;;;;;;25.37;17.93;;;;;;;17.31;100.00;100077.93;1669829;85;21191;-59
2021/08/26 02:51:54;;;;;;;25.73;18.20;;;;;;;17.27;100.00;100080.22;1669122;85;21483;-59
2021/08/26 02:54:21;;;;;;;23.33;18.00;;;;;;;17.22;100.00;100082.23;1668600;85;20999;-58
2021/08/26 02:56:47;;;;;;;19.67;16.30;;;;;;;17.24;100.00;100077.55;1669525;84;21102;-59
2021/08/26 02:59:14;;;;;;;22.60;17.37;;;;;;;17.26;100.00;100080.74;1668424;84;21128;-58
2021/08/26 03:01:41;;;;;;;20.50;16.90;;;;;;;17.24;100.00;100078.88;1699088;81;21202;-60
2021/08/26 03:04:07;;;;;;;21.37;16.00;;;;;;;17.41;100.00;100084.22;1684917;82;21079;-58
2021/08/26 03:06:34;;;;;;;21.93;17.20;;;;;;;17.52;100.00;100083.91;1679108;83;20992;-59
2021/08/26 03:09:00;;;;;;;24.47;16.13;;;;;;;17.52;100.00;100082.59;1710681;81;21133;-58
2021/08/26 03:11:26;;;;;;;24.17;16.63;;;;;;;17.67;100.00;100074.20;1709535;81;21053;-59
2021/08/26 03:13:53;;;;;;;23.63;19.00;;;;;;;17.73;100.00;100080.66;1713597;82;21144;-59
2021/08/26 03:16:19;;;;;;;26.43;20.10;;;;;;;17.85;100.00;100083.80;1709447;81;20939;-59
2021/08/26 03:18:46;;;;;;;23.07;18.50;;;;;;;17.87;100.00;100081.72;1683990;83;21596;-59
2021/08/26 03:21:15;;;;;;;28.13;18.87;;;;;;;17.90;100.00;100078.62;1713420;82;20994;-59
2021/08/26 03:23:43;;;;;;;24.07;18.47;;;;;;;18.01;100.00;100080.41;1684715;83;21556;-59
2021/08/26 03:26:09;;;;;;;24.27;19.90;;;;;;;18.14;100.00;100077.98;1682547;83;21169;-59
2021/08/26 03:28:36;;;;;;;24.60;19.03;;;;;;;18.21;100.00;100078.64;1712272;81;21006;-59
2021/08/26 03:31:02;;;;;;;25.23;18.13;;;;;;;18.59;100.00;100085.08;1711091;81;21147;-59
2021/08/26 03:33:29;;;;;;;21.97;14.77;;;;;;;19.10;100.00;100080.60;1715364;81;20962;-59
2021/08/26 03:35:56;;;;;;;19.97;14.27;;;;;;;19.77;100.00;100075.09;1711877;81;21149;-60
2021/08/26 03:38:22;;;;;;;17.77;14.23;;;;;;;20.49;100.00;100068.66;1706992;81;21812;-60
2021/08/26 03:40:49;;;;;;;15.23;12.70;;;;;;;21.22;100.00;100066.23;1711250;81;20966;-62
2021/08/26 03:43:16;;;;;;;18.40;12.63;;;;;;;21.98;100.00;100064.37;1714755;81;21568;-60
2021/08/26 03:45:44;;;;;;;15.30;11.60;;;;;;;22.79;100.00;100060.15;1711687;81;21525;-60
2021/08/26 03:48:10;;;;;;;13.00;11.63;;;;;;;23.52;100.00;100065.81;1714938;81;21029;-61
2021/08/26 03:50:37;;;;;;;12.33;10.13;;;;;;;24.15;100.00;100060.40;1710867;81;21178;-59
2021/08/26 03:53:04;;;;;;;12.10;9.73;;;;;;;24.63;100.00;100069.90;1716523;81;21062;-61
2021/08/26 03:55:31;;;;;;;13.33;9.60;;;;;;;25.15;100.00;100074.97;1717791;81;21011;-59
2021/08/26 03:57:58;;;;;;;12.67;10.80;;;;;;;25.56;100.00;100066.48;1715211;81;21165;-60
2021/08/26 04:00:24;;;;;;;13.53;9.70;;;;;;;25.98;100.00;100064.85;1718346;81;21002;-61
2021/08/26 04:02:52;;;;;;;11.23;8.63;;;;;;;26.57;90.95;100063.41;1723693;80;21634;-61
2021/08/26 04:05:18;;;;;;;12.60;9.70;;;;;;;26.87;83.55;100068.20;1692369;83;21090;-60
2021/08/26 04:07:46;;;;;;;10.30;9.13;;;;;;;27.43;70.73;100069.02;1721956;80;20939;-60
2021/08/26 04:10:13;;;;;;;11.43;9.63;;;;;;;27.35;67.83;100069.17;1723802;80;21053;-59
2021/08/26 04:12:41;;;;;;;10.45;8.80;;;;;;;27.40;67.06;100064.25;1722906;80;20927;-60
2021/08/26 04:15:09;;;;;;;9.95;8.25;;;;;;;27.70;61.91;100065.48;1723799;80;21144;-60
2021/08/26 04:17:36;;;;;;;11.95;8.03;;;;;;;27.76;60.06;100064.84;1723353;80;20982;-60
2021/08/26 04:20:04;;;;;;;12.85;8.50;;;;;;;27.98;57.65;100056.82;1721034;80;21005;-61
2021/08/26 04:22:30;;;;;;;9.18;7.95;;;;;;;27.94;56.37;100059.08;1728133;80;21488;-60
2021/08/26 04:24:59;;;;;;;10.13;8.00;;;;;;;28.39;55.10;100055.86;1728412;80;20959;-60
2021/08/26 04:27:25;;;;;;;10.60;8.28;;;;;;;28.84;53.36;100055.22;1723622;80;21175;-61
2021/08/26 04:29:52;;;;;;;11.05;7.87;;;;;;;29.17;51.84;100053.55;1718987;80;20989;-60
2021/08/26 04:32:18;;;;;;;10.68;8.30;;;;;;;30.08;47.06;100057.27;1724419;80;20958;-60
2021/08/26 04:34:45;;;;;;;11.68;8.25;;;;;;;30.08;47.06;100057.27;1724144;80;20970;-59
2021/08/26 04:37:13;;;;;;;9.70;8.05;;;;;;;30.43;44.55;100063.38;1724364;80;20962;-58
2021/08/26 04:39:40;;;;;;;8.08;7.28;;;;;;;30.88;43.13;100059.46;1723584;80;21073;-58
2021/08/26 04:42:06;;;;;;;12.63;8.48;;;;;;;31.21;41.35;100063.05;1722249;80;21101;-60
2021/08/26 04:44:34;;;;;;;8.75;6.55;;;;;;;31.43;40.94;100056.61;1723642;80;20982;-59
2021/08/26 04:47:00;;;;;;;8.15;6.60;;;;;;;31.72;39.29;100054.98;1723222;80;20899;-58
2021/08/26 04:49:28;;;;;;;8.88;7.37;;;;;;;32.11;38.52;100052.91;1721069;80;21057;-61
2021/08/26 04:51:55;;;;;;;9.58;8.45;;;;;;;32.21;37.63;100055.20;1723818;80;21104;-58
2021/08/26 04:54:21;;;;;;;10.85;8.63;;;;;;;32.51;37.45;100048.33;1723355;80;21014;-60
2021/08/26 04:56:48;;;;;;;10.30;6.95;;;;;;;32.83;36.79;100043.38;1722435;80;21081;-60
2021/08/26 04:59:14;;;;;;;12.90;9.18;;;;;;;33.00;35.82;100045.11;1723149;80;21125;-59
2021/08/26 05:01:42;;;;;;;12.05;9.78;;;;;;;33.31;35.57;100041.01;1719206;80;21120;-59
2021/08/26 05:04:08;;;;;;;12.45;9.95;;;;;;;33.62;34.58;100041.16;1689397;84;21102;-58
2021/08/26 05:06:35;;;;;;;10.88;9.23;;;;;;;33.61;34.48;100043.66;1714564;83;21389;-59
2021/08/26 05:09:03;;;;;;;10.25;6.97;;;;;;;33.47;34.73;100040.53;1710578;83;21523;-58
2021/08/26 05:11:29;;;;;;;9.10;6.95;;;;;;;33.48;34.59;100040.75;1713053;82;21548;-59
2021/08/26 05:13:56;;;;;;;10.00;7.72;;;;;;;33.41;34.61;100037.27;1695517;83;22503;-60
2021/08/26 05:16:24;;;;;;;9.23;6.75;;;;;;;33.33;34.95;100037.38;1676596;83;20985;-59
2021/08/26 05:18:50;;;;;;;12.98;8.48;;;;;;;33.36;35.18;100041.55;1713600;82;21097;-58
2021/08/26 05:21:16;;;;;;;11.30;7.37;;;;;;;33.37;35.10;100035.00;1714826;83;20987;-57
2021/08/26 05:23:43;;;;;;;10.65;9.40;;;;;;;33.30;34.74;100029.95;1713695;83;21125;-59
2021/08/26 05:26:12;;;;;;;9.78;8.48;;;;;;;33.10;35.00;100029.77;1715322;83;20970;-61
2021/08/26 05:28:41;;;;;;;9.68;6.47;;;;;;;33.12;35.32;100032.94;1714839;83;21092;-59
2021/08/26 05:31:09;;;;;;;10.18;6.50;;;;;;;33.05;35.24;100030.02;1715054;83;21005;-59
2021/08/26 05:33:36;;;;;;;10.68;6.80;;;;;;;32.97;35.95;100034.98;1713155;82;21109;-59
2021/08/26 05:36:03;;;;;;;8.83;6.85;;;;;;;33.08;35.57;100030.69;1711922;83;21101;-60
2021/08/26 05:38:30;;;;;;;11.00;6.25;;;;;;;32.91;36.06;100033.02;1711315;82;21062;-58
2021/08/26 05:40:56;;;;;;;8.83;6.55;;;;;;;32.80;36.17;100029.77;1672950;84;21161;-60
2021/08/26 05:43:23;;;;;;;13.62;6.40;;;;;;;32.85;36.21;100030.34;1713738;81;21021;-59
2021/08/26 05:45:51;;;;;;;7.78;5.90;;;;;;;32.77;36.51;100032.60;1717259;82;21073;-59
2021/08/26 05:48:17;;;;;;;9.25;5.55;;;;;;;32.93;36.81;100022.72;1708809;82;21540;-57
2021/08/26 05:50:45;;;;;;;9.08;5.50;;;;;;;33.19;35.29;100029.67;1710350;82;21498;-57
2021/08/26 05:53:12;;;;;;;8.40;5.15;;;;;;;33.22;35.14;100027.61;1681642;85;21445;-57
2021/08/26 05:55:40;;;;;;;6.17;4.78;;;;;;;33.39;35.17;100031.41;1706292;83;21141;-58
2021/08/26 05:58:06;;;;;;;8.15;4.97;;;;;;;33.52;35.05;100032.18;1710790;82;21028;-58
2021/08/26 06:00:32;;;;;;;10.40;5.05;;;;;;;33.72;34.86;100027.73;1707322;82;20939;-58
2021/08/26 06:02:59;;;;;;;7.87;5.00;;;;;;;33.81;34.77;100034.34;1716219;81;21089;-59
2021/08/26 06:05:26;;;;;;;7.62;4.90;;;;;;;33.74;33.48;100034.14;1724996;81;21770;-58
2021/08/26 06:07:53;;;;;;;7.05;4.78;;;;;;;33.51;32.18;100036.59;1720809;80;21016;-58
2021/08/26 06:10:19;;;;;;;7.50;4.85;;;;;;;33.32;31.88;100031.20;1694617;83;20984;-57
2021/08/26 06:12:46;;;;;;;9.10;5.75;;;;;;;33.04;32.17;100033.06;1720098;80;20983;-58
2021/08/26 06:15:14;;;;;;;6.67;5.22;;;;;;;33.09;32.31;100033.61;1696397;82;21078;-58
2021/08/26 06:17:41;;;;;;;8.00;6.83;;;;;;;32.98;31.64;100031.14;1719449;80;21117;-58
2021/08/26 06:20:10;;;;;;;11.03;7.30;;;;;;;32.84;31.64;100027.97;1726221;81;20909;-58
2021/08/26 06:22:38;;;;;;;9.48;6.67;;;;;;;32.85;31.79;100034.39;1719887;80;20962;-58
2021/08/26 06:25:06;;;;;;;8.95;6.83;;;;;;;32.82;32.93;100032.93;1695423;83;21459;-58
2021/08/26 06:27:33;;;;;;;10.10;7.55;;;;;;;33.08;32.69;100032.05;1729453;80;21044;-58
2021/08/26 06:29:59;;;;;;;8.93;6.15;;;;;;;33.49;32.06;100032.89;1693614;83;22073;-58
2021/08/26 06:32:26;;;;;;;8.53;7.60;;;;;;;33.70;31.91;100027.84;1700716;82;21478;-58
2021/08/26 06:34:53;;;;;;;9.28;7.70;;;;;;;33.88;31.30;100028.56;1692377;82;21023;-58
2021/08/26 06:37:19;;;;;;;13.08;8.45;;;;;;;34.24;31.52;100026.02;1717674;80;21077;-58
2021/08/26 06:39:45;;;;;;;12.23;8.60;;;;;;;34.59;30.71;100027.52;1724941;81;22435;-58
2021/08/26 06:42:12;;;;;;;11.60;8.75;;;;;;;34.84;30.55;100020.73;1720210;80;21874;-58
2021/08/26 06:44:38;;;;;;;11.28;9.25;;;;;;;35.12;29.75;100019.84;1724693;81;20954;-60
2021/08/26 06:47:05;;;;;;;10.08;8.95;;;;;;;35.43;29.78;100017.59;1722807;81;21032;-60
2021/08/26 06:49:32;;;;;;;11.35;10.03;;;;;;;35.37;28.92;100020.92;1724477;81;21013;-59
2021/08/26 06:51:58;;;;;;;12.37;9.65;;;;;;;35.21;29.05;100020.42;1723780;81;21138;-60
2021/08/26 06:54:24;;;;;;;11.28;10.08;;;;;;;35.27;28.14;100024.97;1694187;83;21146;-60
2021/08/26 06:56:51;;;;;;;11.73;9.73;;;;;;;35.31;27.99;100015.80;1720857;83;21006;-59
2021/08/26 06:59:17;;;;;;;12.82;9.40;;;;;;;35.32;28.06;100019.29;1724278;81;21519;-59
2021/08/26 07:01:45;;;;;;;10.30;8.95;;;;;;;35.49;28.18;100011.30;1717596;80;21066;-60
2021/08/26 07:04:12;;;;;;;12.40;9.35;;;;;;;35.63;27.70;100006.77;1717069;81;21117;-60
2021/08/26 07:06:40;;;;;;;12.23;9.28;;;;;;;35.77;26.90;100015.17;1714782;81;21461;-59
2021/08/26 07:09:06;;;;;;;14.13;9.68;;;;;;;35.61;27.71;100013.10;1716110;81;20920;-58
2021/08/26 07:11:32;;;;;;;11.75;8.93;;;;;;;35.64;27.27;100018.59;1719546;81;21041;-59
2021/08/26 07:14:00;;;;;;;12.53;10.18;;;;;;;35.75;27.63;100020.94;1729131;81;21077;-61
2021/08/26 07:16:27;;;;;;;12.47;9.58;;;;;;;35.94;27.24;100018.77;1719594;81;21128;-61
2021/08/26 07:18:55;;;;;;;10.85;8.65;;;;;;;36.06;27.36;100012.42;1705370;81;21118;-61
2021/08/26 07:21:21;;;;;;;10.63;8.85;;;;;;;36.19;26.68;100013.05;1713289;82;21505;-61
2021/08/26 07:23:48;;;;;;;11.63;10.38;;;;;;;36.20;26.56;100008.59;1671613;85;21040;-61
2021/08/26 07:26:14;;;;;;;9.08;7.42;;;;;;;36.12;26.65;100015.62;1706470;81;22365;-60
2021/08/26 07:28:41;;;;;;;9.15;7.85;;;;;;;35.94;25.44;100014.70;1689814;82;21126;-60
2021/08/26 07:31:07;;;;;;;13.30;8.58;;;;;;;35.44;26.35;100011.59;1716348;80;21142;-59
2021/08/26 07:33:34;;;;;;;9.40;8.28;;;;;;;35.21;26.89;100010.94;1714474;80;20993;-60
2021/08/26 07:36:05;;;;;;;12.33;8.45;;;;;;;35.19;26.65;100012.42;1716254;80;21113;-60
2021/08/26 07:38:32;;;;;;;11.40;7.87;;;;;;;35.12;27.31;100008.20;1724271;79;21077;-59
2021/08/26 07:40:58;;;;;;;11.73;8.65;;;;;;;35.19;26.47;100004.29;1724422;80;21559;-58
2021/08/26 07:43:25;;;;;;;12.88;8.35;;;;;;;35.04;26.60;100014.03;1721195;80;21596;-60
2021/08/26 07:45:53;;;;;;;9.83;8.70;;;;;;;34.85;26.82;100012.04;1718275;80;22071;-59
2021/08/26 07:48:20;;;;;;;9.68;8.68;;;;;;;34.69;27.17;100010.72;1720899;80;20952;-59
2021/08/26 07:50:48;;;;;;;10.68;9.10;;;;;;;34.67;27.35;100008.16;1718762;80;20963;-59
2021/08/26 07:53:15;;;;;;;11.50;9.10;;;;;;;34.56;27.37;100009.26;1723333;80;21013;-59
2021/08/26 07:55:42;;;;;;;12.07;9.40;;;;;;;34.68;27.26;100002.95;1726197;80;22256;-61
2021/08/26 07:58:08;;;;;;;15.58;10.65;;;;;;;34.88;27.63;100005.92;1708789;80;21776;-61
2021/08/26 08:00:34;;;;;;;13.18;10.82;;;;;;;34.94;27.19;99997.75;1717670;80;21149;-60
2021/08/26 08:03:03;;;;;;;14.83;10.20;;;;;;;35.14;26.95;99995.88;1710862;80;21500;-61
2021/08/26 08:05:30;;;;;;;10.72;8.85;;;;;;;35.29;27.18;99995.61;1684323;83;21157;-59
2021/08/26 08:07:58;;;;;;;10.28;9.18;;;;;;;35.47;26.09;99984.55;1705268;82;22824;-59
2021/08/26 08:10:25;;;;;;;12.88;8.50;;;;;;;35.45;26.41;99983.34;1707105;83;20943;-60
2021/08/26 08:12:51;;;;;;;8.23;7.40;;;;;;;35.44;26.81;99985.84;1675777;83;21104;-61
2021/08/26 08:15:18;;;;;;;8.75;7.85;;;;;;;35.47;25.39;99977.00;1704154;83;20971;-60
2021/08/26 08:17:44;;;;;;;8.53;6.97;;;;;;;35.24;25.54;99979.06;1704989;82;21098;-59
2021/08/26 08:20:11;;;;;;;10.35;7.78;;;;;;;34.82;25.30;99982.98;1689503;83;21145;-60
2021/08/26 08:22:39;;;;;;;9.40;7.60;;;;;;;34.54;25.98;99979.81;1689627;83;21012;-61
2021/08/26 08:25:07;;;;;;;42.38;38.13;;;;;;;34.59;25.88;99966.03;1713727;81;20994;-60
2021/08/26 08:27:34;;;;;;;26.33;22.05;;;;;;;34.57;25.80;99965.59;1707750;83;21521;-59
2021/08/26 08:30:00;;;;;;;21.05;15.53;;;;;;;34.57;25.97;99966.94;1672295;83;21000;-60
2021/08/26 08:32:27;;;;;;;14.35;11.03;;;;;;;34.71;26.05;99962.43;1674298;83;21187;-62
2021/08/26 08:34:54;;;;;;;14.75;11.43;;;;;;;34.70;26.10;99973.59;1686485;83;21060;-60
2021/08/26 08:37:21;;;;;;;14.63;9.25;;;;;;;34.58;25.31;99956.32;1714520;83;21086;-59
2021/08/26 08:39:48;;;;;;;9.45;7.35;;;;;;;34.58;26.19;99956.32;1706686;83;21049;-60
2021/08/26 08:42:14;;;;;;;8.95;6.85;;;;;;;34.77;25.70;99958.86;1681731;83;21113;-60
2021/08/26 08:44:41;;;;;;;9.08;6.53;;;;;;;34.72;25.79;99957.80;1683726;83;21191;-59
2021/08/26 08:47:08;;;;;;;7.47;6.78;;;;;;;34.85;25.51;99957.88;1688391;83;21007;-60
2021/08/26 08:49:36;;;;;;;7.47;6.17;;;;;;;34.82;25.10;99963.45;1714226;83;20987;-60
2021/08/26 08:52:03;;;;;;;9.55;6.30;;;;;;;34.58;25.29;99956.32;1695486;83;21124;-59
2021/08/26 08:54:30;;;;;;;7.87;6.47;;;;;;;34.24;25.77;99963.80;1706547;83;21043;-59
2021/08/26 08:56:57;;;;;;;8.35;7.50;;;;;;;33.95;25.73;99966.34;1677869;83;21173;-61
2021/08/26 08:59:23;;;;;;;7.08;6.17;;;;;;;34.00;26.57;99957.42;1710726;83;21085;-60
2021/08/26 09:01:53;;;;;;;6.90;6.15;;;;;;;34.00;26.35;99947.95;1711167;82;21540;-61
2021/08/26 09:04:21;;;;;;;8.38;6.20;;;;;;;33.95;26.82;99948.19;1692849;82;21033;-58
2021/08/26 09:06:50;;;;;;;8.13;6.17;;;;;;;33.75;25.95;99958.66;1689635;82;20983;-59
2021/08/26 09:09:18;;;;;;;8.18;6.00;;;;;;;33.63;26.78;99944.07;1690692;82;21168;-60
2021/08/26 09:11:56;;;;;;;7.97;6.10;;;;;;;33.65;26.47;99946.45;1691282;82;37499;-59
2021/08/26 09:14:25;;;;;;;8.50;6.62;;;;;;;33.66;26.06;99949.36;1720757;81;22167;-59
2021/08/26 09:16:54;;;;;;;7.55;5.95;;;;;;;33.51;27.13;99952.24;1682934;83;21102;-60
2021/08/26 09:19:34;;;;;;;6.58;5.45;;;;;;;33.49;26.44;99940.20;1712011;81;20987;-59
2021/08/26 09:21:58;;;;;;;10.00;6.58;;;;;;;33.50;26.65;99948.55;1719565;81;21140;-58
2021/08/26 09:24:52;;;;;;;8.50;6.00;;;;;;;33.50;26.00;99927.71;1721496;81;21081;-59
2021/08/26 09:27:34;;;;;;;10.03;6.22;;;;;;;33.34;26.01;99939.80;1721134;81;21002;-58
2021/08/26 09:30:18;;;;;;;7.40;6.10;;;;;;;33.25;26.78;99932.39;1718388;81;21050;-60
2021/08/26 09:32:59;;;;;;;10.32;7.22;;;;;;;33.43;27.21;99928.84;1718395;80;21043;-61
2021/08/26 09:35:32;;;;;;;7.73;6.37;;;;;;;33.57;26.01;99929.83;1719489;81;21123;-59
2021/08/26 09:38:03;;;;;;;7.85;6.60;;;;;;;33.37;26.18;99932.91;1723234;81;21003;-59
2021/08/26 09:40:33;;;;;;;8.28;6.28;;;;;;;33.33;27.21;99917.16;1720110;81;21497;-61
2021/08/26 09:43:04;;;;;;;;;;;;;;;33.55;26.83;99913.94;1720568;81;20994;-60
2021/08/26 09:45:39;;;;;;;8.00;6.25;;;;;;;33.74;26.19;99913.27;1718849;81;20192;-61
2021/08/26 09:48:11;;;;;;;8.88;6.87;;;;;;;33.74;26.37;99911.92;1713118;81;21146;-59
2021/08/26 09:50:47;;;;;;;8.68;6.80;;;;;;;33.87;26.75;99916.13;1716144;81;21001;-61
2021/08/26 09:53:22;;;;;;;8.38;6.42;;;;;;;34.04;26.68;99911.53;1718054;80;21072;-59
2021/08/26 09:56:04;;;;;;;8.75;6.90;;;;;;;34.28;26.52;99905.14;1685613;82;21116;-59
2021/08/26 09:58:33;;;;;;;9.78;7.37;;;;;;;34.60;26.24;99903.20;1714870;81;21511;-60
2021/08/26 10:01:13;;;;;;;11.68;7.30;;;;;;;34.77;25.40;99901.42;1720203;81;21586;-62
2021/08/26 10:03:41;;;;;;;8.03;6.97;;;;;;;34.74;26.26;99906.77;1722012;80;21501;-61
2021/08/26 10:06:09;;;;;;;9.28;7.37;;;;;;;34.66;25.38;99904.48;1723045;80;21026;-61
2021/08/26 10:08:36;;;;;;;8.80;7.33;;;;;;;34.57;25.32;99906.61;1721788;80;21014;-60
2021/08/26 10:11:04;;;;;;;7.47;6.72;;;;;;;34.55;24.39;99908.87;1721669;80;21061;-59
2021/08/26 10:13:33;;;;;;;7.83;6.95;;;;;;;34.25;24.44;99897.17;1720288;80;21069;-59
2021/08/26 10:15:59;;;;;;;9.38;7.37;;;;;;;34.05;24.65;99904.41;1721210;80;20970;-59
2021/08/26 10:18:29;;;;;;;8.95;7.10;;;;;;;34.04;25.46;99907.48;1720571;80;20976;-58
2021/08/26 10:20:56;;;;;;;10.75;7.25;;;;;;;34.08;25.06;99895.60;1687369;80;21083;-60
2021/08/26 10:23:23;;;;;;;7.33;6.37;;;;;;;34.24;24.69;99904.27;1729613;80;20978;-59
2021/08/26 10:25:50;;;;;;;7.12;6.42;;;;;;;34.14;24.21;99902.33;1719114;80;21814;-60
2021/08/26 10:28:17;;;;;;;8.08;7.20;;;;;;;34.03;24.42;99899.94;1720593;80;20971;-60
2021/08/26 10:30:44;;;;;;;8.45;6.00;;;;;;;33.99;24.94;99904.47;1719426;80;21070;-59
2021/08/26 10:33:23;;;;;;;7.05;6.33;;;;;;;34.05;24.12;99910.39;1728554;80;21117;-58
2021/08/26 10:35:59;;;;;;;7.60;6.78;;;;;;;34.01;23.62;99903.54;1719917;80;21061;-60
2021/08/26 10:38:35;;;;;;;10.90;6.72;;;;;;;33.84;24.07;99910.06;1719778;80;21147;-59
2021/08/26 10:41:25;;;;;;;8.85;5.53;;;;;;;33.80;23.80;99910.54;1727403;80;22055;-59
2021/08/26 10:43:59;;;;;;;6.83;6.12;;;;;;;33.71;23.50;99922.64;1718135;80;21022;-59
2021/08/26 10:46:54;;;;;;;9.88;6.33;;;;;;;33.49;24.08;99905.88;1678856;83;21158;-59
2021/08/26 10:49:24;;;;;;;7.25;6.37;;;;;;;33.46;24.11;99916.02;1680793;83;20987;-59
2021/08/26 10:51:52;;;;;;;9.43;6.35;;;;;;;33.52;24.61;99901.67;1676320;83;21211;-60
2021/08/26 10:54:33;;;;;;;7.20;6.03;;;;;;;33.58;24.42;99905.14;1677914;83;21161;-60
2021/08/26 10:57:27;;;;;;;8.33;6.62;;;;;;;33.60;24.12;99904.25;1677652;83;20900;-60
2021/08/26 10:59:54;;;;;;;9.60;8.25;;;;;;;33.53;24.22;99901.92;1674285;83;21050;-59
2021/08/26 11:02:41;;;;;;;8.75;6.90;;;;;;;33.53;24.47;99896.52;1657830;84;21095;-60
2021/08/26 11:05:37;;;;;;;7.15;6.20;;;;;;;33.60;24.50;99893.44;1659039;83;21140;-59
2021/08/26 11:08:29;;;;;;;9.68;6.72;;;;;;;33.62;24.14;99887.09;1718505;80;20935;-59
2021/08/26 11:10:56;;;;;;;9.35;7.15;;;;;;;33.70;25.06;99890.77;1717207;80;21134;-58
2021/08/26 11:13:32;;;;;;;13.80;7.35;;;;;;;33.73;24.83;99888.73;1721536;80;21050;-58
2021/08/26 11:16:28;;;;;;;7.22;6.53;;;;;;;33.77;24.71;99888.25;1726549;79;20995;-58
2021/08/26 11:19:06;;;;;;;11.33;10.23;;;;;;;33.79;24.64;99881.13;1721303;80;21176;-59
2021/08/26 11:21:48;;;;;;;9.35;7.03;;;;;;;33.85;24.53;99883.23;1715780;80;21017;-59
2021/08/26 11:24:20;;;;;;;7.58;6.78;;;;;;;33.78;24.09;99879.00;1717289;80;21077;-60
2021/08/26 11:27:04;;;;;;;6.83;6.12;;;;;;;33.60;24.40;99871.81;1717848;80;21085;-60